Time;durP1;ratioP1;P1;durP2;ratioP2;P2;SDS_P1;SDS_P2;PMS_P1;PMS_P2;Temp;Humidity;BMP_temperature;BMP_pressure;BME280_temperature;BME280_humidity;BME280_pressure;Samples;Min_cycle;Max_cycle;Signal;HPM_P1;HPM_P2
2021/11/21 00:01:35;;;;;;;15.38;13.25;;;5.70;99.90;;;;;;5030573;28;20060;-77
2021/11/21 00:04:01;;;;;;;14.60;12.70;;;5.70;99.90;;;;;;5030778;28;20056;-78
2021/11/21 00:06:27;;;;;;;16.00;12.35;;;5.90;99.90;;;;;;5030647;28;20102;-77
2021/11/21 00:08:52;;;;;;;17.38;14.43;;;5.80;99.90;;;;;;5024958;28;20022;-79
2021/11/21 00:11:19;;;;;;;14.50;13.00;;;5.70;99.90;;;;;;5038984;28;20034;-78
2021/11/21 00:13:45;;;;;;;16.20;13.98;;;5.70;99.90;;;;;;5024686;28;20045;-78
2021/11/21 00:16:11;;;;;;;16.25;13.68;;;5.60;99.90;;;;;;5027453;28;20073;-79
2021/11/21 00:18:37;;;;;;;16.75;13.65;;;5.60;99.90;;;;;;5023196;28;20033;-77
2021/11/21 00:21:03;;;;;;;17.60;14.25;;;5.50;99.90;;;;;;5037240;28;20026;-78
2021/11/21 00:23:28;;;;;;;16.52;13.48;;;5.50;99.90;;;;;;5022791;28;20038;-79
2021/11/21 00:25:54;;;;;;;15.00;13.35;;;5.50;99.90;;;;;;5022316;28;20087;-79
2021/11/21 00:28:19;;;;;;;14.73;12.98;;;5.60;99.90;;;;;;5023226;28;20037;-81
2021/11/21 00:30:45;;;;;;;14.32;12.20;;;5.60;99.90;;;;;;5024981;28;20052;-78
2021/11/21 00:33:10;;;;;;;14.27;11.98;;;5.60;99.90;;;;;;5023956;28;20033;-79
2021/11/21 00:35:36;;;;;;;14.90;12.98;;;5.60;99.90;;;;;;5023245;28;20240;-81
2021/11/21 00:38:02;;;;;;;13.65;11.90;;;5.60;99.90;;;;;;5025113;28;20501;-79
2021/11/21 00:40:28;;;;;;;15.25;12.38;;;5.50;99.90;;;;;;5035974;28;20021;-78
2021/11/21 00:42:57;;;;;;;16.50;12.48;;;5.50;99.90;;;;;;5024591;28;20057;-78
2021/11/21 00:45:23;;;;;;;17.20;13.63;;;5.50;99.90;;;;;;5027601;28;20026;-79
2021/11/21 00:47:48;;;;;;;17.08;12.50;;;5.60;99.90;;;;;;5026559;28;20109;-80
2021/11/21 00:50:15;;;;;;;18.25;12.80;;;5.60;99.90;;;;;;5038549;28;20026;-79
2021/11/21 00:52:42;;;;;;;15.40;13.10;;;5.50;99.90;;;;;;5025204;28;20018;-78
2021/11/21 00:55:11;;;;;;;14.35;12.85;;;5.50;99.90;;;;;;5026056;28;20022;-79
2021/11/21 00:57:38;;;;;;;15.75;12.68;;;5.50;99.90;;;;;;5025675;28;20032;-78
2021/11/21 01:00:07;;;;;;;15.45;12.70;;;5.60;99.90;;;;;;5028692;28;20034;-78
2021/11/21 01:02:33;;;;;;;15.88;13.55;;;5.70;99.90;;;;;;5031785;28;20041;-76
2021/11/21 01:05:00;;;;;;;12.63;10.82;;;5.70;99.90;;;;;;5033458;28;20041;-77
2021/11/21 01:07:25;;;;;;;16.23;14.60;;;5.60;99.90;;;;;;5034528;28;20026;-77
2021/11/21 01:09:51;;;;;;;14.50;12.90;;;5.50;99.90;;;;;;5030175;28;20026;-78
2021/11/21 01:12:17;;;;;;;14.05;12.55;;;5.50;99.90;;;;;;5023206;28;20088;-78
2021/11/21 01:14:42;;;;;;;16.52;13.00;;;5.40;99.90;;;;;;5022560;28;20029;-78
2021/11/21 01:17:08;;;;;;;13.95;12.45;;;5.40;99.90;;;;;;5022462;28;20026;-78
2021/11/21 01:19:34;;;;;;;18.05;14.48;;;5.50;99.90;;;;;;5022924;28;20386;-79
2021/11/21 01:22:00;;;;;;;16.90;13.52;;;5.50;99.90;;;;;;5022499;28;20026;-79
2021/11/21 01:24:26;;;;;;;15.13;12.32;;;5.40;99.90;;;;;;5029393;28;20021;-78
2021/11/21 01:26:52;;;;;;;13.65;12.23;;;5.40;99.90;;;;;;5038029;28;20046;-78
2021/11/21 01:29:17;;;;;;;14.70;12.25;;;5.40;99.90;;;;;;5053421;28;20053;-78
2021/11/21 01:31:47;;;;;;;14.98;12.20;;;5.30;99.90;;;;;;5038087;28;20018;-77
2021/11/21 01:34:13;;;;;;;15.45;13.30;;;5.30;99.90;;;;;;5037463;28;20050;-77
2021/11/21 01:36:39;;;;;;;14.75;12.30;;;5.30;99.90;;;;;;5035424;28;20026;-78
2021/11/21 01:39:05;;;;;;;14.95;12.85;;;5.20;99.90;;;;;;5024909;28;20037;-77
2021/11/21 01:41:30;;;;;;;13.40;10.98;;;5.20;99.90;;;;;;5023613;28;20508;-78
2021/11/21 01:43:56;;;;;;;16.15;13.00;;;5.10;99.90;;;;;;5024075;28;20030;-79
2021/11/21 01:46:34;;;;;;;14.05;12.35;;;5.20;99.90;;;;;;5023665;28;20029;-80
2021/11/21 01:49:00;;;;;;;17.55;14.32;;;5.10;99.90;;;;;;5021926;28;20026;-78
2021/11/21 01:51:25;;;;;;;18.45;14.40;;;5.00;99.90;;;;;;5023750;28;20052;-79
2021/11/21 01:53:51;;;;;;;23.38;13.80;;;5.10;99.90;;;;;;5023363;28;20033;-79
2021/11/21 01:56:17;;;;;;;13.88;11.82;;;5.00;99.90;;;;;;5022646;28;20257;-78
2021/11/21 01:58:42;;;;;;;19.17;13.75;;;5.00;99.90;;;;;;5021277;28;20084;-80
2021/11/21 02:01:08;;;;;;;16.02;13.75;;;4.90;99.90;;;;;;5022391;28;20091;-78
2021/11/21 02:03:33;;;;;;;17.02;13.57;;;4.90;99.90;;;;;;5020988;28;20029;-78
2021/11/21 02:06:00;;;;;;;18.63;13.88;;;5.00;99.90;;;;;;5022148;28;20036;-78
2021/11/21 02:08:26;;;;;;;15.57;13.68;;;5.00;99.90;;;;;;5020721;28;20088;-78
2021/11/21 02:10:57;;;;;;;15.60;12.52;;;5.10;99.90;;;;;;5021930;28;20489;-79
2021/11/21 02:13:23;;;;;;;16.38;13.30;;;5.30;99.90;;;;;;5028340;28;20029;-77
2021/11/21 02:15:48;;;;;;;15.23;12.52;;;5.40;99.90;;;;;;5034499;28;20010;-76
2021/11/21 02:18:14;;;;;;;15.90;12.55;;;5.60;99.90;;;;;;5035989;28;20030;-76
2021/11/21 02:20:40;;;;;;;16.65;13.57;;;5.60;99.90;;;;;;5034024;28;20026;-77
2021/11/21 02:23:07;;;;;;;14.50;12.98;;;5.30;99.90;;;;;;5028051;28;20029;-79
2021/11/21 02:25:34;;;;;;;17.75;14.60;;;5.20;99.90;;;;;;5021120;28;20033;-78
2021/11/21 02:27:59;;;;;;;16.50;13.57;;;5.20;99.90;;;;;;5025928;28;20385;-79
2021/11/21 02:30:25;;;;;;;16.42;12.48;;;5.10;99.90;;;;;;5023169;28;20030;-80
2021/11/21 02:32:53;;;;;;;16.40;12.63;;;5.00;99.90;;;;;;5022667;28;20025;-78
2021/11/21 02:35:20;;;;;;;12.63;11.18;;;5.00;99.90;;;;;;5031722;28;20030;-77
2021/11/21 02:37:46;;;;;;;13.88;11.80;;;4.90;99.90;;;;;;5025665;28;20030;-79
2021/11/21 02:40:13;;;;;;;12.88;10.27;;;4.90;99.90;;;;;;5019443;28;20033;-78
2021/11/21 02:42:39;;;;;;;12.20;9.55;;;4.80;99.90;;;;;;5019130;28;20125;-78
2021/11/21 02:45:09;;;;;;;12.15;9.90;;;4.80;99.90;;;;;;5021183;28;20116;-78
2021/11/21 02:47:35;;;;;;;10.68;9.52;;;4.80;99.90;;;;;;5021955;28;20126;-78
2021/11/21 02:50:03;;;;;;;11.77;10.05;;;4.80;99.90;;;;;;5022047;28;20030;-79
2021/11/21 02:52:30;;;;;;;10.00;8.93;;;4.80;99.90;;;;;;5023347;28;20044;-79
2021/11/21 02:54:57;;;;;;;11.13;9.63;;;4.70;99.90;;;;;;5023789;28;20085;-78
2021/11/21 02:57:24;;;;;;;12.10;9.80;;;4.80;99.90;;;;;;5023265;28;20033;-77
2021/11/21 02:59:51;;;;;;;11.95;9.32;;;4.70;99.90;;;;;;5027265;28;20030;-77
2021/11/21 03:02:21;;;;;;;12.52;10.35;;;4.60;99.90;;;;;;5027314;28;20494;-78
2021/11/21 03:04:47;;;;;;;10.93;9.48;;;4.70;99.90;;;;;;5025982;28;20022;-78
2021/11/21 03:07:13;;;;;;;11.07;9.02;;;4.80;99.90;;;;;;5022358;28;20030;-78
2021/11/21 03:09:40;;;;;;;12.98;10.35;;;4.80;99.90;;;;;;5025032;28;20101;-77
2021/11/21 03:12:06;;;;;;;12.68;10.52;;;4.80;99.90;;;;;;5023950;28;20026;-78
2021/11/21 03:14:32;;;;;;;12.98;9.75;;;4.70;99.90;;;;;;5031478;28;20080;-77
2021/11/21 03:17:00;;;;;;;12.10;10.70;;;4.70;99.90;;;;;;5028707;28;20037;-78
2021/11/21 03:19:26;;;;;;;15.07;11.43;;;4.60;99.90;;;;;;5027430;28;20056;-79
2021/11/21 03:21:52;;;;;;;13.65;10.70;;;4.60;99.90;;;;;;5025114;28;20096;-80
2021/11/21 03:24:17;;;;;;;12.77;10.85;;;4.60;99.90;;;;;;5025805;28;20604;-79
2021/11/21 03:26:43;;;;;;;13.80;11.40;;;4.70;99.90;;;;;;5026064;28;20026;-78
2021/11/21 03:29:09;;;;;;;14.70;10.70;;;4.70;99.90;;;;;;5025095;28;20419;-79
2021/11/21 03:31:35;;;;;;;14.18;10.05;;;4.80;99.90;;;;;;5041576;28;20660;-78
2021/11/21 03:34:04;;;;;;;11.88;9.77;;;4.80;99.90;;;;;;5028121;28;20026;-78
2021/11/21 03:36:31;;;;;;;10.15;8.98;;;4.90;99.90;;;;;;5031511;28;20026;-78
2021/11/21 03:38:57;;;;;;;11.27;9.75;;;4.90;99.90;;;;;;5029772;28;20029;-77
2021/11/21 03:41:23;;;;;;;10.88;9.52;;;4.90;99.90;;;;;;5030679;28;20038;-78
2021/11/21 03:43:49;;;;;;;10.75;9.65;;;5.00;99.90;;;;;;5028755;28;20046;-78
2021/11/21 03:46:15;;;;;;;10.13;9.13;;;5.00;99.90;;;;;;5033886;28;20037;-77
2021/11/21 03:48:40;;;;;;;9.15;8.15;;;4.90;99.90;;;;;;5023355;28;20029;-78
2021/11/21 03:51:06;;;;;;;9.77;8.77;;;4.90;99.90;;;;;;5024486;28;20025;-79
2021/11/21 03:53:32;;;;;;;11.07;9.65;;;4.90;99.90;;;;;;5023059;28;20448;-78
2021/11/21 03:55:57;;;;;;;9.43;8.45;;;4.80;99.90;;;;;;5023488;28;20033;-76
2021/11/21 03:58:23;;;;;;;10.75;8.90;;;4.80;99.90;;;;;;5031420;28;20036;-76
2021/11/21 04:00:49;;;;;;;10.95;9.52;;;4.90;99.90;;;;;;5037077;28;20026;-79
2021/11/21 04:03:17;;;;;;;11.00;9.90;;;4.80;99.90;;;;;;5026122;28;20029;-78
2021/11/21 04:05:43;;;;;;;10.32;8.70;;;4.80;99.90;;;;;;5029669;28;20078;-76
2021/11/21 04:08:08;;;;;;;10.25;8.00;;;4.80;99.90;;;;;;5033055;28;20033;-79
2021/11/21 04:10:34;;;;;;;10.85;8.98;;;4.70;99.90;;;;;;5054077;22;20041;-73
2021/11/21 04:13:01;;;;;;;10.55;8.50;;;4.70;99.90;;;;;;5035038;28;20427;-73
2021/11/21 04:15:27;;;;;;;11.07;9.98;;;4.60;99.90;;;;;;5036001;28;20037;-74
2021/11/21 04:17:52;;;;;;;9.88;8.15;;;4.60;99.90;;;;;;5034759;28;20026;-73
2021/11/21 04:20:18;;;;;;;9.82;8.82;;;4.60;99.90;;;;;;5034671;28;20032;-73
2021/11/21 04:22:43;;;;;;;10.00;8.45;;;4.60;99.90;;;;;;5034658;28;20056;-73
2021/11/21 04:25:10;;;;;;;9.88;8.25;;;4.50;99.90;;;;;;5033393;28;20127;-73
2021/11/21 04:27:36;;;;;;;9.38;8.00;;;4.60;99.90;;;;;;5034861;28;20211;-73
2021/11/21 04:30:03;;;;;;;10.88;8.45;;;4.60;99.90;;;;;;5035003;28;20377;-74
2021/11/21 04:32:32;;;;;;;9.70;8.68;;;4.60;99.90;;;;;;5034175;28;20033;-74
2021/11/21 04:34:57;;;;;;;10.85;9.25;;;4.60;99.90;;;;;;5034048;28;20477;-73
2021/11/21 04:37:23;;;;;;;10.38;8.55;;;4.50;99.90;;;;;;5033965;28;20037;-73
2021/11/21 04:39:48;;;;;;;9.90;7.70;;;4.40;99.90;;;;;;5033821;28;20096;-73
2021/11/21 04:42:15;;;;;;;9.93;8.25;;;4.40;99.90;;;;;;5033688;28;20080;-73
2021/11/21 04:44:43;;;;;;;8.75;7.72;;;4.40;99.90;;;;;;5032907;28;20037;-73
2021/11/21 04:47:09;;;;;;;9.38;8.40;;;4.50;99.90;;;;;;5034214;28;20047;-73
2021/11/21 04:49:34;;;;;;;8.95;7.65;;;4.50;99.90;;;;;;5033969;28;20029;-73
2021/11/21 04:52:00;;;;;;;8.15;7.35;;;4.50;99.90;;;;;;5033878;28;20084;-73
2021/11/21 04:54:26;;;;;;;8.52;7.70;;;4.50;99.90;;;;;;5034114;28;20026;-73
2021/11/21 04:56:52;;;;;;;8.68;7.45;;;4.50;99.90;;;;;;5034155;28;20040;-74
2021/11/21 04:59:18;;;;;;;8.90;7.97;;;4.50;99.90;;;;;;5034282;28;20022;-73
2021/11/21 05:01:44;;;;;;;8.07;7.25;;;4.50;99.90;;;;;;5033789;28;20366;-73
2021/11/21 05:04:10;;;;;;;7.72;6.93;;;4.40;99.90;;;;;;5041850;28;20033;-73
2021/11/21 05:06:36;;;;;;;7.68;6.88;;;4.40;99.90;;;;;;5049791;28;20029;-73
2021/11/21 05:09:04;;;;;;;9.10;6.68;;;4.40;99.90;;;;;;5046674;28;20567;-73
2021/11/21 05:11:30;;;;;;;7.38;6.55;;;4.40;99.90;;;;;;5042562;28;20064;-73
2021/11/21 05:13:55;;;;;;;10.02;7.80;;;4.30;99.90;;;;;;5042930;28;20013;-73
2021/11/21 05:16:21;;;;;;;8.15;7.35;;;4.40;99.90;;;;;;5052167;28;20252;-72
2021/11/21 05:18:47;;;;;;;7.57;6.38;;;4.30;99.90;;;;;;5049963;28;20037;-73
2021/11/21 05:21:12;;;;;;;7.93;7.22;;;4.40;99.90;;;;;;5050383;28;20041;-73
2021/11/21 05:23:38;;;;;;;8.45;7.65;;;4.30;99.90;;;;;;5050123;28;20089;-74
2021/11/21 05:26:05;;;;;;;7.78;6.93;;;4.40;99.90;;;;;;5055372;28;20051;-72
2021/11/21 05:28:30;;;;;;;8.18;7.18;;;4.40;99.90;;;;;;5052277;28;20026;-72
2021/11/21 05:30:56;;;;;;;8.25;6.78;;;4.30;99.90;;;;;;5051572;28;20029;-72
2021/11/21 05:33:21;;;;;;;8.00;6.57;;;4.30;99.90;;;;;;5050423;28;20038;-73
2021/11/21 05:35:47;;;;;;;8.23;7.43;;;4.30;99.90;;;;;;5045636;28;20361;-73
2021/11/21 05:38:13;;;;;;;8.32;7.53;;;4.30;99.90;;;;;;5033053;28;20456;-73
2021/11/21 05:40:39;;;;;;;7.10;6.40;;;4.40;99.90;;;;;;5033760;28;20076;-73
2021/11/21 05:43:04;;;;;;;7.80;6.95;;;4.40;99.90;;;;;;5033084;28;20049;-74
2021/11/21 05:45:30;;;;;;;7.72;6.93;;;4.40;99.90;;;;;;5031771;28;20064;-73
2021/11/21 05:47:57;;;;;;;7.85;7.10;;;4.30;99.90;;;;;;5032286;28;20033;-73
2021/11/21 05:50:22;;;;;;;7.30;6.60;;;4.30;99.90;;;;;;5032817;28;20028;-75
2021/11/21 05:52:49;;;;;;;7.43;6.70;;;4.30;99.90;;;;;;5035935;28;20100;-73
2021/11/21 05:55:17;;;;;;;6.90;6.22;;;4.20;99.90;;;;;;5037707;28;20025;-74
2021/11/21 05:57:43;;;;;;;6.75;5.93;;;4.30;99.90;;;;;;5046473;28;20093;-73
2021/11/21 06:00:12;;;;;;;7.47;6.68;;;4.30;99.90;;;;;;5046669;28;20013;-73
2021/11/21 06:02:39;;;;;;;6.93;6.25;;;4.30;99.90;;;;;;5051432;28;20028;-74
2021/11/21 06:05:06;;;;;;;6.50;5.82;;;4.30;99.90;;;;;;5049316;28;20044;-73
2021/11/21 06:07:31;;;;;;;7.15;6.43;;;4.30;99.90;;;;;;5051399;28;20085;-72
2021/11/21 06:09:57;;;;;;;9.15;7.45;;;4.30;99.90;;;;;;5042085;28;20029;-74
2021/11/21 06:12:23;;;;;;;7.40;6.68;;;4.30;99.90;;;;;;5042358;28;20408;-74
2021/11/21 06:14:48;;;;;;;9.25;6.72;;;4.40;99.90;;;;;;5037175;28;20022;-73
2021/11/21 06:17:14;;;;;;;7.43;6.15;;;4.60;99.90;;;;;;5038323;28;20393;-72
2021/11/21 06:19:40;;;;;;;9.02;6.75;;;4.40;99.90;;;;;;5036288;28;20022;-72
2021/11/21 06:22:06;;;;;;;8.60;6.72;;;4.40;99.90;;;;;;5034680;28;20024;-74
2021/11/21 06:24:32;;;;;;;9.75;7.88;;;4.40;99.90;;;;;;5033431;28;20026;-73
2021/11/21 06:26:58;;;;;;;8.30;6.80;;;4.40;99.90;;;;;;5033445;28;20488;-74
2021/11/21 06:29:23;;;;;;;8.07;6.70;;;4.40;99.90;;;;;;5032265;28;20111;-74
2021/11/21 06:31:50;;;;;;;7.75;6.13;;;4.30;99.90;;;;;;5032867;28;20021;-73
2021/11/21 06:34:17;;;;;;;8.73;6.82;;;4.30;99.90;;;;;;5035743;28;20022;-74
2021/11/21 06:36:43;;;;;;;8.68;6.57;;;4.40;99.90;;;;;;5037470;28;20025;-73
2021/11/21 06:39:10;;;;;;;8.80;6.57;;;4.40;99.90;;;;;;5037031;28;20095;-73
2021/11/21 06:41:37;;;;;;;7.75;6.85;;;4.40;99.90;;;;;;5036995;28;20042;-73
2021/11/21 06:44:03;;;;;;;8.65;6.57;;;4.50;99.90;;;;;;5036547;28;20463;-74
2021/11/21 06:46:29;;;;;;;9.70;6.15;;;4.40;99.90;;;;;;5035027;28;20375;-73
2021/11/21 06:48:55;;;;;;;8.27;7.15;;;4.40;99.90;;;;;;5036518;28;20121;-74
2021/11/21 06:51:21;;;;;;;7.97;6.78;;;4.40;99.90;;;;;;5036651;28;20033;-73
2021/11/21 06:53:48;;;;;;;10.80;7.75;;;4.50;99.90;;;;;;5036521;28;20060;-73
2021/11/21 06:56:14;;;;;;;9.45;7.65;;;4.70;99.90;;;;;;5035243;28;20137;-74
2021/11/21 06:58:40;;;;;;;9.30;8.38;;;4.60;99.90;;;;;;5049087;28;20144;-74
2021/11/21 07:01:06;;;;;;;10.27;8.77;;;4.40;99.90;;;;;;5041625;28;20096;-73
2021/11/21 07:03:31;;;;;;;13.40;8.25;;;4.30;99.90;;;;;;5037616;28;20034;-71
2021/11/21 07:05:57;;;;;;;9.05;8.13;;;4.20;99.90;;;;;;5036818;28;20026;-74
2021/11/21 07:08:22;;;;;;;9.57;8.52;;;4.20;99.90;;;;;;5039540;28;20096;-73
2021/11/21 07:10:48;;;;;;;9.63;8.57;;;4.30;99.90;;;;;;5035572;28;20029;-73
2021/11/21 07:13:14;;;;;;;10.75;8.32;;;4.20;99.90;;;;;;5035765;28;20022;-74
2021/11/21 07:15:40;;;;;;;9.57;8.50;;;4.10;99.90;;;;;;5034370;28;20596;-74
2021/11/21 07:18:05;;;;;;;10.35;8.90;;;4.10;99.90;;;;;;5035477;28;20111;-74
2021/11/21 07:20:31;;;;;;;10.40;9.10;;;4.10;99.90;;;;;;5036711;28;20028;-74
2021/11/21 07:22:57;;;;;;;9.82;8.63;;;4.10;99.90;;;;;;5038238;28;20022;-73
2021/11/21 07:25:24;;;;;;;11.75;8.40;;;4.10;99.90;;;;;;5036035;28;20087;-73
2021/11/21 07:27:52;;;;;;;14.77;9.00;;;4.10;99.90;;;;;;5035773;28;20029;-75
2021/11/21 07:30:19;;;;;;;10.25;9.23;;;4.40;99.90;;;;;;5035232;28;20386;-73
2021/11/21 07:32:46;;;;;;;12.02;9.82;;;4.40;99.90;;;;;;5033986;28;20439;-74
2021/11/21 07:35:17;;;;;;;11.85;9.65;;;4.30;99.90;;;;;;5035542;28;20397;-73
2021/11/21 07:37:43;;;;;;;13.00;9.23;;;4.20;99.90;;;;;;5033753;28;20384;-74
2021/11/21 07:40:12;;;;;;;13.50;10.60;;;4.20;99.90;;;;;;5034979;28;20033;-73
2021/11/21 07:42:38;;;;;;;11.25;9.90;;;4.20;99.90;;;;;;5035102;28;20393;-72
2021/11/21 07:45:05;;;;;;;12.10;9.25;;;4.10;99.90;;;;;;5034436;28;20117;-74
2021/11/21 07:47:31;;;;;;;10.57;9.15;;;4.10;99.90;;;;;;5035004;28;20560;-75
2021/11/21 07:49:57;;;;;;;12.45;9.23;;;4.10;99.90;;;;;;5035076;28;20057;-74
2021/11/21 07:52:25;;;;;;;13.65;10.18;;;4.20;99.90;;;;;;5036603;28;20112;-75
2021/11/21 07:54:50;;;;;;;12.40;9.65;;;4.20;99.90;;;;;;5035089;28;20053;-74
2021/11/21 07:57:16;;;;;;;12.32;8.90;;;4.30;99.90;;;;;;5034743;28;20029;-74
2021/11/21 07:59:41;;;;;;;11.13;9.20;;;4.40;99.90;;;;;;5034700;28;20026;-72
2021/11/21 08:02:07;;;;;;;11.15;9.82;;;4.60;99.90;;;;;;5033225;28;20018;-74
2021/11/21 08:04:32;;;;;;;11.98;8.98;;;4.60;99.90;;;;;;5034521;28;20087;-73
2021/11/21 08:06:58;;;;;;;13.95;9.50;;;4.60;99.90;;;;;;5034533;28;20088;-74
2021/11/21 08:09:24;;;;;;;12.00;9.57;;;4.60;99.90;;;;;;5034818;28;20049;-73
2021/11/21 08:11:49;;;;;;;13.32;9.55;;;4.70;99.90;;;;;;5034162;28;20588;-73
2021/11/21 08:14:15;;;;;;;15.57;10.85;;;4.70;99.90;;;;;;5034710;28;20025;-73
2021/11/21 08:16:42;;;;;;;12.35;9.50;;;4.60;99.90;;;;;;5034446;28;20045;-72
2021/11/21 08:19:10;;;;;;;11.32;8.93;;;4.60;99.90;;;;;;5034470;28;20021;-74
2021/11/21 08:21:35;;;;;;;14.60;11.55;;;4.30;99.90;;;;;;5034234;28;20104;-74
2021/11/21 08:24:01;;;;;;;13.82;10.48;;;4.30;99.90;;;;;;5033242;28;20060;-75
2021/11/21 08:26:27;;;;;;;19.95;13.75;;;4.50;99.90;;;;;;5034736;28;20072;-72
2021/11/21 08:28:52;;;;;;;20.50;13.65;;;4.70;99.90;;;;;;5049421;28;20006;-73
2021/11/21 08:31:18;;;;;;;19.58;14.23;;;4.60;99.90;;;;;;5036186;28;20504;-74
2021/11/21 08:33:43;;;;;;;23.92;15.18;;;4.50;99.90;;;;;;5039040;28;20025;-73
2021/11/21 08:36:09;;;;;;;24.05;16.15;;;4.50;99.90;;;;;;5048669;28;20036;-73
2021/11/21 08:38:34;;;;;;;23.88;15.77;;;4.40;99.90;;;;;;5045504;28;20118;-73
2021/11/21 08:41:00;;;;;;;26.08;16.40;;;4.50;99.90;;;;;;5034278;28;20025;-74
2021/11/21 08:43:26;;;;;;;23.67;15.68;;;4.40;99.90;;;;;;5039139;28;20076;-74
2021/11/21 08:45:51;;;;;;;19.20;14.18;;;4.40;99.90;;;;;;5035909;28;20080;-73
2021/11/21 08:48:17;;;;;;;21.70;14.77;;;4.40;99.90;;;;;;5034515;28;20025;-73
2021/11/21 08:50:43;;;;;;;23.00;14.57;;;4.40;99.90;;;;;;5033686;28;20040;-73
2021/11/21 08:53:08;;;;;;;18.77;12.77;;;4.30;99.90;;;;;;5032657;28;20053;-73
2021/11/21 08:55:34;;;;;;;21.02;13.48;;;4.30;99.90;;;;;;5045953;28;20056;-72
2021/11/21 08:57:59;;;;;;;22.08;14.77;;;4.40;99.90;;;;;;5040484;28;20493;-74
2021/11/21 09:00:25;;;;;;;20.52;13.90;;;4.40;99.90;;;;;;5033922;28;20104;-74
2021/11/21 09:02:51;;;;;;;19.23;13.70;;;4.40;99.90;;;;;;5032377;28;20056;-73
2021/11/21 09:05:17;;;;;;;20.27;13.65;;;4.50;99.90;;;;;;5039120;28;20028;-72
2021/11/21 09:07:44;;;;;;;18.33;13.05;;;4.50;99.90;;;;;;5035768;28;20021;-72
2021/11/21 09:10:18;;;;;;;17.70;12.55;;;4.60;99.90;;;;;;5033521;28;20495;-74
2021/11/21 09:12:45;;;;;;;17.75;12.70;;;4.50;99.90;;;;;;5034874;28;20033;-73
2021/11/21 09:15:14;;;;;;;17.23;12.02;;;4.60;99.90;;;;;;5038160;28;20456;-74
2021/11/21 09:17:41;;;;;;;14.98;11.52;;;4.60;99.90;;;;;;5034893;28;20036;-74
2021/11/21 09:20:08;;;;;;;15.93;11.25;;;4.60;99.90;;;;;;5036622;28;20028;-74
2021/11/21 09:22:34;;;;;;;15.80;11.80;;;4.50;99.90;;;;;;5037058;28;20072;-74
2021/11/21 09:25:00;;;;;;;13.50;10.35;;;4.60;99.90;;;;;;5036108;28;20030;-74
2021/11/21 09:27:26;;;;;;;14.07;10.63;;;4.60;99.90;;;;;;5035769;28;20028;-74
2021/11/21 09:29:52;;;;;;;15.90;10.45;;;4.70;99.90;;;;;;5039304;28;20033;-75
2021/11/21 09:32:17;;;;;;;11.90;9.55;;;4.60;99.90;;;;;;5042478;28;20034;-74
2021/11/21 09:34:43;;;;;;;12.75;10.40;;;4.70;99.90;;;;;;5037488;28;20017;-73
2021/11/21 09:37:10;;;;;;;12.50;10.38;;;4.70;99.90;;;;;;5036055;28;20021;-74
2021/11/21 09:39:36;;;;;;;14.05;10.05;;;4.80;99.90;;;;;;5034791;28;20642;-73
2021/11/21 09:42:03;;;;;;;11.82;9.20;;;4.90;99.90;;;;;;5034683;28;20021;-74
2021/11/21 09:44:28;;;;;;;11.77;9.00;;;4.90;99.90;;;;;;5033668;28;20499;-74
2021/11/21 09:46:54;;;;;;;13.55;9.07;;;4.90;99.90;;;;;;5033466;28;20108;-73
2021/11/21 09:49:21;;;;;;;14.02;9.43;;;4.90;99.90;;;;;;5033380;28;20067;-74
2021/11/21 09:51:47;;;;;;;11.27;8.77;;;4.90;99.90;;;;;;5033443;28;20392;-74
2021/11/21 09:54:18;;;;;;;11.02;8.88;;;4.90;99.90;;;;;;5034718;28;20025;-73
2021/11/21 09:56:44;;;;;;;10.93;7.57;;;4.90;99.90;;;;;;5033815;28;20028;-73
2021/11/21 09:59:11;;;;;;;10.45;7.57;;;4.90;99.90;;;;;;5034406;28;20080;-73
2021/11/21 10:01:45;;;;;;;12.25;8.35;;;4.90;99.90;;;;;;5034537;28;20030;-73
2021/11/21 10:04:12;;;;;;;9.70;8.07;;;4.90;99.90;;;;;;5034247;28;20033;-74
2021/11/21 10:06:48;;;;;;;12.55;8.75;;;5.00;99.90;;;;;;5035254;28;20022;-73
2021/11/21 10:09:18;;;;;;;12.05;8.30;;;5.00;99.90;;;;;;5033532;28;20025;-74
2021/11/21 10:12:16;;;;;;;11.67;7.97;;;5.10;99.90;;;;;;5064424;22;20049;-74
2021/11/21 10:14:57;;;;;;;10.15;7.57;;;5.10;99.90;;;;;;5006753;28;20037;-74
2021/11/21 10:17:25;;;;;;;9.93;8.55;;;5.10;99.90;;;;;;5039047;28;20040;-74
2021/11/21 10:20:16;;;;;;;9.85;7.22;;;5.30;99.90;;;;;;5036153;28;20021;-73
2021/11/21 10:23:07;;;;;;;11.05;7.85;;;5.10;99.90;;;;;;5038282;28;20436;-73
2021/11/21 10:25:33;;;;;;;;;;;5.20;99.90;;;;;;5041106;28;20072;-72
2021/11/21 10:28:04;;;;;;;12.27;8.07;;;5.10;99.90;;;;;;5040384;28;19905;-74
2021/11/21 10:30:30;;;;;;;12.40;8.25;;;5.20;99.90;;;;;;5033712;28;20025;-73
2021/11/21 10:33:02;;;;;;;11.75;9.15;;;5.20;99.90;;;;;;5034335;28;20093;-72
2021/11/21 10:35:28;;;;;;;11.95;8.40;;;5.10;99.90;;;;;;5038181;28;20040;-73
2021/11/21 10:37:57;;;;;;;11.07;8.63;;;5.10;99.90;;;;;;5049539;28;20052;-73
2021/11/21 10:40:24;;;;;;;14.55;10.30;;;5.10;99.90;;;;;;5045466;28;20081;-73
2021/11/21 10:42:51;;;;;;;17.58;10.05;;;5.20;99.90;;;;;;5043008;28;20080;-74
2021/11/21 10:45:26;;;;;;;14.20;10.40;;;5.10;99.90;;;;;;5040836;28;20026;-73
2021/11/21 10:47:53;;;;;;;15.68;11.00;;;5.00;99.90;;;;;;5041213;28;20018;-72
2021/11/21 10:50:32;;;;;;;11.93;8.07;;;4.80;99.90;;;;;;5037048;28;20049;-74
2021/11/21 10:53:00;;;;;;;16.88;10.02;;;4.70;99.90;;;;;;5035675;28;20028;-74
2021/11/21 10:55:26;;;;;;;14.55;10.43;;;4.70;99.90;;;;;;5035273;28;20072;-74
2021/11/21 10:57:52;;;;;;;13.88;9.90;;;4.70;99.90;;;;;;5034500;28;20034;-73
2021/11/21 11:00:21;;;;;;;14.38;10.80;;;4.70;99.90;;;;;;5033891;28;20139;-74
2021/11/21 11:02:48;;;;;;;15.32;9.30;;;4.60;99.90;;;;;;5039361;28;20108;-73
2021/11/21 11:05:18;;;;;;;14.02;9.07;;;4.90;99.90;;;;;;5038345;28;20041;-74
2021/11/21 11:07:47;;;;;;;13.13;9.70;;;4.90;99.90;;;;;;5044685;28;20508;-73
2021/11/21 11:10:20;;;;;;;15.15;9.20;;;4.80;99.90;;;;;;5051373;28;20018;-72
2021/11/21 11:12:50;;;;;;;11.23;8.98;;;4.90;99.90;;;;;;5050087;28;20029;-73
2021/11/21 11:15:16;;;;;;;12.50;9.52;;;4.80;99.90;;;;;;5044928;28;20164;-73
2021/11/21 11:17:43;;;;;;;13.27;8.75;;;4.80;99.90;;;;;;5038285;28;20171;-73
2021/11/21 11:20:12;;;;;;;12.15;7.88;;;4.60;99.90;;;;;;5036053;28;20037;-74
2021/11/21 11:22:40;;;;;;;10.00;7.75;;;4.60;99.90;;;;;;5039850;28;20026;-74
2021/11/21 11:25:11;;;;;;;11.27;8.05;;;4.60;99.90;;;;;;5038980;28;20464;-73
2021/11/21 11:27:52;;;;;;;10.45;7.57;;;4.70;99.90;;;;;;5037752;28;20113;-73
2021/11/21 11:30:27;;;;;;;11.90;7.78;;;4.70;99.90;;;;;;5036723;28;20026;-75
2021/11/21 11:33:05;;;;;;;11.70;8.38;;;4.90;99.90;;;;;;5038732;28;20117;-73
2021/11/21 11:35:32;;;;;;;11.32;8.10;;;4.90;99.90;;;;;;5037887;28;20033;-73
2021/11/21 11:38:11;;;;;;;12.55;8.43;;;4.80;99.90;;;;;;5037483;28;20189;-74
2021/11/21 11:40:41;;;;;;;11.98;8.32;;;4.70;99.90;;;;;;5036201;28;20500;-74
2021/11/21 11:43:29;;;;;;;11.63;7.90;;;4.70;99.90;;;;;;5037176;28;20033;-73
2021/11/21 11:46:13;;;;;;;13.40;8.60;;;4.80;99.90;;;;;;5035974;28;20098;-74
2021/11/21 11:48:45;;;;;;;11.95;8.25;;;4.70;99.90;;;;;;5035860;28;20056;-73
2021/11/21 11:51:19;;;;;;;14.52;9.45;;;4.70;99.90;;;;;;5037611;28;20096;-74
2021/11/21 11:53:54;;;;;;;11.77;7.90;;;4.70;99.90;;;;;;5039328;28;20021;-73
2021/11/21 11:56:29;;;;;;;14.35;8.82;;;4.70;99.90;;;;;;5035854;28;20032;-73
2021/11/21 11:59:18;;;;;;;13.23;9.25;;;4.70;99.90;;;;;;5036448;28;20121;-74
2021/11/21 12:01:44;;;;;;;11.93;7.13;;;4.80;99.90;;;;;;4999680;28;20045;-74
2021/11/21 12:04:29;;;;;;;10.85;8.25;;;4.80;99.90;;;;;;5037320;28;20540;-74
2021/11/21 12:06:57;;;;;;;10.25;8.23;;;4.80;99.90;;;;;;5034631;28;20029;-74
2021/11/21 12:09:25;;;;;;;8.70;6.90;;;4.80;99.90;;;;;;5034461;28;20116;-73
2021/11/21 12:12:05;;;;;;;8.30;6.78;;;4.80;99.90;;;;;;5034373;28;20037;-73
2021/11/21 12:14:35;;;;;;;7.80;6.32;;;4.80;99.90;;;;;;5036680;28;20026;-72
2021/11/21 12:17:04;;;;;;;11.52;8.05;;;4.80;99.90;;;;;;5034351;28;20021;-73
2021/11/21 12:19:42;;;;;;;10.75;8.07;;;4.90;99.90;;;;;;5036125;28;20026;-75
2021/11/21 12:22:30;;;;;;;10.05;7.38;;;5.00;99.90;;;;;;5036603;28;20033;-75
2021/11/21 12:25:06;;;;;;;8.63;6.82;;;5.00;99.90;;;;;;5035764;28;20021;-75
2021/11/21 12:27:35;;;;;;;8.80;7.18;;;5.10;99.90;;;;;;5040676;28;20056;-73
2021/11/21 12:30:21;;;;;;;8.45;5.85;;;5.20;99.90;;;;;;5039000;28;20021;-74
2021/11/21 12:32:58;;;;;;;10.90;7.82;;;5.40;99.90;;;;;;5046328;28;20029;-73
2021/11/21 12:35:30;;;;;;;8.95;7.32;;;5.50;99.90;;;;;;5051351;28;20179;-74
2021/11/21 12:38:19;;;;;;;7.28;5.82;;;5.60;99.90;;;;;;5056629;28;20041;-73
2021/11/21 12:40:50;;;;;;;6.70;5.88;;;5.50;99.90;;;;;;5056824;28;20034;-74
2021/11/21 12:43:17;;;;;;;7.65;5.38;;;5.50;99.90;;;;;;5057234;28;20117;-73
2021/11/21 12:45:48;;;;;;;7.80;5.97;;;5.50;99.90;;;;;;5054635;28;20057;-73
2021/11/21 12:48:15;;;;;;;5.15;3.97;;;5.60;99.90;;;;;;5041198;28;20040;-72